sensor_id;sensor_type;location;lat;lon;timestamp;P1;durP1;ratioP1;P2;durP2;ratioP2
1682;SDS011;13252;53.596;10.060;2022-11-14T00:00:56;32.40;;;25.87;;
1682;SDS011;13252;53.596;10.060;2022-11-14T00:03:43;37.27;;;27.17;;
1682;SDS011;13252;53.596;10.060;2022-11-14T00:06:30;35.37;;;27.53;;
1682;SDS011;13252;53.596;10.060;2022-11-14T00:09:16;33.67;;;26.50;;
1682;SDS011;13252;53.596;10.060;2022-11-14T00:12:03;38.60;;;27.70;;
1682;SDS011;13252;53.596;10.060;2022-11-14T00:14:49;35.30;;;27.33;;
1682;SDS011;13252;53.596;10.060;2022-11-14T00:17:36;34.80;;;27.10;;
1682;SDS011;13252;53.596;10.060;2022-11-14T00:20:24;37.40;;;28.47;;
1682;SDS011;13252;53.596;10.060;2022-11-14T00:23:10;38.10;;;28.93;;
1682;SDS011;13252;53.596;10.060;2022-11-14T00:25:56;35.77;;;26.47;;
1682;SDS011;13252;53.596;10.060;2022-11-14T00:28:42;37.80;;;28.00;;
1682;SDS011;13252;53.596;10.060;2022-11-14T00:31:28;40.50;;;28.90;;
1682;SDS011;13252;53.596;10.060;2022-11-14T00:34:14;36.97;;;28.73;;
1682;SDS011;13252;53.596;10.060;2022-11-14T00:37:02;39.80;;;30.33;;
1682;SDS011;13252;53.596;10.060;2022-11-14T00:39:48;41.97;;;27.97;;
1682;SDS011;13252;53.596;10.060;2022-11-14T00:42:34;38.00;;;27.23;;
1682;SDS011;13252;53.596;10.060;2022-11-14T00:45:21;40.50;;;28.67;;
1682;SDS011;13252;53.596;10.060;2022-11-14T00:48:08;41.30;;;31.10;;
1682;SDS011;13252;53.596;10.060;2022-11-14T00:50:54;37.50;;;27.33;;
1682;SDS011;13252;53.596;10.060;2022-11-14T00:53:41;40.87;;;27.80;;
1682;SDS011;13252;53.596;10.060;2022-11-14T00:56:27;43.30;;;30.83;;
1682;SDS011;13252;53.596;10.060;2022-11-14T00:59:13;41.33;;;28.70;;
1682;SDS011;13252;53.596;10.060;2022-11-14T01:02:00;35.20;;;28.37;;
1682;SDS011;13252;53.596;10.060;2022-11-14T01:04:46;45.50;;;28.40;;
1682;SDS011;13252;53.596;10.060;2022-11-14T01:07:32;38.50;;;28.40;;
1682;SDS011;13252;53.596;10.060;2022-11-14T01:10:20;40.97;;;29.37;;
1682;SDS011;13252;53.596;10.060;2022-11-14T01:13:06;45.07;;;31.07;;
1682;SDS011;13252;53.596;10.060;2022-11-14T01:15:52;42.30;;;29.67;;
1682;SDS011;13252;53.596;10.060;2022-11-14T01:18:39;38.13;;;27.70;;
1682;SDS011;13252;53.596;10.060;2022-11-14T01:21:26;39.47;;;28.73;;
1682;SDS011;13252;53.596;10.060;2022-11-14T01:24:12;40.73;;;28.60;;
1682;SDS011;13252;53.596;10.060;2022-11-14T01:27:01;37.97;;;27.80;;
1682;SDS011;13252;53.596;10.060;2022-11-14T01:29:47;38.60;;;28.17;;
1682;SDS011;13252;53.596;10.060;2022-11-14T01:32:33;40.07;;;29.27;;
1682;SDS011;13252;53.596;10.060;2022-11-14T01:35:19;41.47;;;28.50;;
1682;SDS011;13252;53.596;10.060;2022-11-14T01:38:05;39.77;;;28.93;;
1682;SDS011;13252;53.596;10.060;2022-11-14T01:40:51;39.37;;;28.77;;
1682;SDS011;13252;53.596;10.060;2022-11-14T01:43:39;40.43;;;29.57;;
1682;SDS011;13252;53.596;10.060;2022-11-14T01:46:27;40.80;;;27.83;;
1682;SDS011;13252;53.596;10.060;2022-11-14T01:49:14;43.97;;;30.70;;
1682;SDS011;13252;53.596;10.060;2022-11-14T01:52:04;48.10;;;28.30;;
1682;SDS011;13252;53.596;10.060;2022-11-14T01:54:52;40.47;;;29.70;;
1682;SDS011;13252;53.596;10.060;2022-11-14T01:57:41;46.00;;;32.40;;
1682;SDS011;13252;53.596;10.060;2022-11-14T02:00:30;37.30;;;28.13;;
1682;SDS011;13252;53.596;10.060;2022-11-14T02:03:16;41.10;;;29.90;;
1682;SDS011;13252;53.596;10.060;2022-11-14T02:06:02;41.37;;;29.70;;
1682;SDS011;13252;53.596;10.060;2022-11-14T02:08:50;43.13;;;30.40;;
1682;SDS011;13252;53.596;10.060;2022-11-14T02:11:37;40.70;;;29.90;;
1682;SDS011;13252;53.596;10.060;2022-11-14T02:14:25;42.70;;;29.03;;
1682;SDS011;13252;53.596;10.060;2022-11-14T02:17:13;41.00;;;29.87;;
1682;SDS011;13252;53.596;10.060;2022-11-14T02:20:24;49.97;;;33.97;;
1682;SDS011;13252;53.596;10.060;2022-11-14T02:23:12;39.93;;;30.37;;
1682;SDS011;13252;53.596;10.060;2022-11-14T02:26:01;41.90;;;29.50;;
1682;SDS011;13252;53.596;10.060;2022-11-14T02:28:48;43.77;;;31.90;;
1682;SDS011;13252;53.596;10.060;2022-11-14T02:31:34;41.50;;;29.37;;
1682;SDS011;13252;53.596;10.060;2022-11-14T02:34:20;43.63;;;31.27;;
1682;SDS011;13252;53.596;10.060;2022-11-14T02:37:08;39.20;;;28.43;;
1682;SDS011;13252;53.596;10.060;2022-11-14T02:39:54;35.30;;;28.00;;
1682;SDS011;13252;53.596;10.060;2022-11-14T02:42:40;43.03;;;29.80;;
1682;SDS011;13252;53.596;10.060;2022-11-14T02:45:26;42.40;;;30.60;;
1682;SDS011;13252;53.596;10.060;2022-11-14T02:48:12;44.93;;;30.30;;
1682;SDS011;13252;53.596;10.060;2022-11-14T02:50:59;38.97;;;29.70;;
1682;SDS011;13252;53.596;10.060;2022-11-14T02:53:46;46.63;;;33.10;;
1682;SDS011;13252;53.596;10.060;2022-11-14T02:56:33;42.33;;;30.50;;
1682;SDS011;13252;53.596;10.060;2022-11-14T02:59:19;42.13;;;31.90;;
1682;SDS011;13252;53.596;10.060;2022-11-14T03:02:05;39.33;;;28.63;;
1682;SDS011;13252;53.596;10.060;2022-11-14T03:04:51;40.33;;;31.10;;
1682;SDS011;13252;53.596;10.060;2022-11-14T03:07:37;43.87;;;32.30;;
1682;SDS011;13252;53.596;10.060;2022-11-14T03:10:25;52.33;;;29.97;;
1682;SDS011;13252;53.596;10.060;2022-11-14T03:13:11;44.47;;;32.47;;
1682;SDS011;13252;53.596;10.060;2022-11-14T03:15:58;44.30;;;31.97;;
1682;SDS011;13252;53.596;10.060;2022-11-14T03:18:50;44.40;;;31.53;;
1682;SDS011;13252;53.596;10.060;2022-11-14T03:21:36;48.60;;;31.60;;
1682;SDS011;13252;53.596;10.060;2022-11-14T03:24:22;50.73;;;33.77;;
1682;SDS011;13252;53.596;10.060;2022-11-14T03:27:10;44.17;;;31.60;;
1682;SDS011;13252;53.596;10.060;2022-11-14T03:29:56;45.90;;;30.27;;
1682;SDS011;13252;53.596;10.060;2022-11-14T03:32:42;48.83;;;33.97;;
1682;SDS011;13252;53.596;10.060;2022-11-14T03:35:28;47.87;;;31.77;;
1682;SDS011;13252;53.596;10.060;2022-11-14T03:38:15;48.10;;;34.60;;
1682;SDS011;13252;53.596;10.060;2022-11-14T03:41:01;43.67;;;31.20;;
1682;SDS011;13252;53.596;10.060;2022-11-14T03:43:49;49.10;;;32.97;;
1682;SDS011;13252;53.596;10.060;2022-11-14T03:46:35;52.43;;;34.40;;
1682;SDS011;13252;53.596;10.060;2022-11-14T03:49:22;46.50;;;32.53;;
1682;SDS011;13252;53.596;10.060;2022-11-14T03:52:08;48.87;;;34.27;;
1682;SDS011;13252;53.596;10.060;2022-11-14T03:54:54;46.13;;;31.97;;
1682;SDS011;13252;53.596;10.060;2022-11-14T03:57:40;40.57;;;30.17;;
1682;SDS011;13252;53.596;10.060;2022-11-14T04:00:28;44.80;;;31.30;;
1682;SDS011;13252;53.596;10.060;2022-11-14T04:03:14;45.37;;;31.17;;
1682;SDS011;13252;53.596;10.060;2022-11-14T04:06:00;45.33;;;33.03;;
1682;SDS011;13252;53.596;10.060;2022-11-14T04:08:47;40.70;;;30.20;;
1682;SDS011;13252;53.596;10.060;2022-11-14T04:11:33;47.80;;;30.93;;
1682;SDS011;13252;53.596;10.060;2022-11-14T04:14:19;45.10;;;32.63;;
1682;SDS011;13252;53.596;10.060;2022-11-14T04:17:07;47.40;;;33.53;;
1682;SDS011;13252;53.596;10.060;2022-11-14T04:19:53;45.07;;;31.70;;
1682;SDS011;13252;53.596;10.060;2022-11-14T04:22:39;49.00;;;32.50;;
1682;SDS011;13252;53.596;10.060;2022-11-14T04:25:26;48.33;;;30.63;;
1682;SDS011;13252;53.596;10.060;2022-11-14T04:28:12;47.70;;;33.60;;
1682;SDS011;13252;53.596;10.060;2022-11-14T04:30:58;45.60;;;30.00;;
1682;SDS011;13252;53.596;10.060;2022-11-14T04:33:46;43.10;;;30.50;;
1682;SDS011;13252;53.596;10.060;2022-11-14T04:36:32;41.63;;;29.80;;
1682;SDS011;13252;53.596;10.060;2022-11-14T04:39:19;44.03;;;31.03;;
1682;SDS011;13252;53.596;10.060;2022-11-14T04:42:05;43.80;;;32.60;;
1682;SDS011;13252;53.596;10.060;2022-11-14T04:44:52;50.93;;;32.20;;
1682;SDS011;13252;53.596;10.060;2022-11-14T04:47:39;42.67;;;31.97;;
1682;SDS011;13252;53.596;10.060;2022-11-14T04:50:27;42.57;;;31.40;;
1682;SDS011;13252;53.596;10.060;2022-11-14T04:53:13;45.13;;;30.87;;
1682;SDS011;13252;53.596;10.060;2022-11-14T04:55:59;41.83;;;28.57;;
1682;SDS011;13252;53.596;10.060;2022-11-14T04:58:45;47.50;;;32.97;;
1682;SDS011;13252;53.596;10.060;2022-11-14T05:01:31;40.53;;;29.67;;
1682;SDS011;13252;53.596;10.060;2022-11-14T05:04:18;46.83;;;31.80;;
1682;SDS011;13252;53.596;10.060;2022-11-14T05:07:06;42.90;;;30.60;;
1682;SDS011;13252;53.596;10.060;2022-11-14T05:09:52;47.80;;;32.57;;
1682;SDS011;13252;53.596;10.060;2022-11-14T05:12:39;51.07;;;33.07;;
1682;SDS011;13252;53.596;10.060;2022-11-14T05:15:26;48.60;;;32.60;;
1682;SDS011;13252;53.596;10.060;2022-11-14T05:18:13;42.40;;;31.00;;
1682;SDS011;13252;53.596;10.060;2022-11-14T05:21:00;43.07;;;29.80;;
1682;SDS011;13252;53.596;10.060;2022-11-14T05:23:49;43.73;;;30.50;;
1682;SDS011;13252;53.596;10.060;2022-11-14T05:26:36;47.47;;;31.27;;
1682;SDS011;13252;53.596;10.060;2022-11-14T05:29:24;43.10;;;30.37;;
1682;SDS011;13252;53.596;10.060;2022-11-14T05:32:11;46.63;;;32.37;;
1682;SDS011;13252;53.596;10.060;2022-11-14T05:35:00;48.47;;;32.90;;
1682;SDS011;13252;53.596;10.060;2022-11-14T05:37:48;47.90;;;32.63;;
1682;SDS011;13252;53.596;10.060;2022-11-14T05:40:47;51.03;;;33.90;;
1682;SDS011;13252;53.596;10.060;2022-11-14T05:43:34;47.50;;;32.23;;
1682;SDS011;13252;53.596;10.060;2022-11-14T05:46:25;50.30;;;33.30;;
1682;SDS011;13252;53.596;10.060;2022-11-14T05:49:13;44.87;;;32.10;;
1682;SDS011;13252;53.596;10.060;2022-11-14T05:52:12;51.07;;;33.90;;
1682;SDS011;13252;53.596;10.060;2022-11-14T05:55:02;53.90;;;35.57;;
1682;SDS011;13252;53.596;10.060;2022-11-14T05:57:51;47.97;;;32.33;;
1682;SDS011;13252;53.596;10.060;2022-11-14T06:00:38;55.10;;;34.20;;
1682;SDS011;13252;53.596;10.060;2022-11-14T06:03:37;51.77;;;35.37;;
1682;SDS011;13252;53.596;10.060;2022-11-14T06:06:25;47.30;;;32.40;;
1682;SDS011;13252;53.596;10.060;2022-11-14T06:09:06;51.47;;;34.27;;
1682;SDS011;13252;53.596;10.060;2022-11-14T06:11:52;53.23;;;34.00;;
1682;SDS011;13252;53.596;10.060;2022-11-14T06:14:40;53.87;;;34.60;;
1682;SDS011;13252;53.596;10.060;2022-11-14T06:17:26;54.83;;;31.57;;
1682;SDS011;13252;53.596;10.060;2022-11-14T06:20:13;52.53;;;33.00;;
1682;SDS011;13252;53.596;10.060;2022-11-14T06:22:59;50.67;;;31.37;;
1682;SDS011;13252;53.596;10.060;2022-11-14T06:25:45;46.67;;;31.60;;
1682;SDS011;13252;53.596;10.060;2022-11-14T06:28:32;47.80;;;32.50;;
1682;SDS011;13252;53.596;10.060;2022-11-14T06:31:20;45.23;;;30.20;;
1682;SDS011;13252;53.596;10.060;2022-11-14T06:34:06;45.43;;;30.37;;
1682;SDS011;13252;53.596;10.060;2022-11-14T06:36:53;49.17;;;33.07;;
1682;SDS011;13252;53.596;10.060;2022-11-14T06:39:39;47.77;;;31.80;;
1682;SDS011;13252;53.596;10.060;2022-11-14T06:42:25;51.33;;;34.37;;
1682;SDS011;13252;53.596;10.060;2022-11-14T06:45:11;47.67;;;33.40;;
1682;SDS011;13252;53.596;10.060;2022-11-14T06:47:59;54.50;;;34.00;;
1682;SDS011;13252;53.596;10.060;2022-11-14T06:50:49;56.87;;;31.70;;
1682;SDS011;13252;53.596;10.060;2022-11-14T06:53:36;52.20;;;34.97;;
1682;SDS011;13252;53.596;10.060;2022-11-14T06:56:23;51.07;;;35.10;;
1682;SDS011;13252;53.596;10.060;2022-11-14T06:59:10;61.60;;;36.90;;
1682;SDS011;13252;53.596;10.060;2022-11-14T07:01:56;50.30;;;33.43;;
1682;SDS011;13252;53.596;10.060;2022-11-14T07:04:43;60.50;;;37.80;;
1682;SDS011;13252;53.596;10.060;2022-11-14T07:07:29;48.47;;;32.47;;
1682;SDS011;13252;53.596;10.060;2022-11-14T07:10:15;53.67;;;32.70;;
1682;SDS011;13252;53.596;10.060;2022-11-14T07:13:02;55.50;;;35.20;;
1682;SDS011;13252;53.596;10.060;2022-11-14T07:15:48;51.60;;;33.67;;
1682;SDS011;13252;53.596;10.060;2022-11-14T07:18:35;49.17;;;33.77;;
1682;SDS011;13252;53.596;10.060;2022-11-14T07:21:23;54.73;;;34.93;;
1682;SDS011;13252;53.596;10.060;2022-11-14T07:24:10;52.83;;;35.00;;
1682;SDS011;13252;53.596;10.060;2022-11-14T07:26:56;52.07;;;33.77;;
1682;SDS011;13252;53.596;10.060;2022-11-14T07:29:42;54.00;;;35.33;;
1682;SDS011;13252;53.596;10.060;2022-11-14T07:32:29;55.27;;;34.63;;
1682;SDS011;13252;53.596;10.060;2022-11-14T07:35:15;59.50;;;36.30;;
1682;SDS011;13252;53.596;10.060;2022-11-14T07:38:03;56.17;;;36.60;;
1682;SDS011;13252;53.596;10.060;2022-11-14T07:40:53;50.17;;;32.70;;
1682;SDS011;13252;53.596;10.060;2022-11-14T07:43:43;58.97;;;36.00;;
1682;SDS011;13252;53.596;10.060;2022-11-14T07:46:30;59.60;;;33.97;;
1682;SDS011;13252;53.596;10.060;2022-11-14T07:49:16;56.07;;;33.03;;
1682;SDS011;13252;53.596;10.060;2022-11-14T07:52:02;57.50;;;35.87;;
1682;SDS011;13252;53.596;10.060;2022-11-14T07:54:50;50.03;;;33.37;;
1682;SDS011;13252;53.596;10.060;2022-11-14T07:57:36;58.53;;;34.37;;
1682;SDS011;13252;53.596;10.060;2022-11-14T08:00:29;55.07;;;33.33;;
1682;SDS011;13252;53.596;10.060;2022-11-14T08:03:15;54.10;;;35.40;;
1682;SDS011;13252;53.596;10.060;2022-11-14T08:06:02;61.00;;;37.20;;
1682;SDS011;13252;53.596;10.060;2022-11-14T08:08:49;57.60;;;37.70;;
1682;SDS011;13252;53.596;10.060;2022-11-14T08:11:37;52.20;;;34.87;;
1682;SDS011;13252;53.596;10.060;2022-11-14T08:14:35;58.07;;;36.40;;
1682;SDS011;13252;53.596;10.060;2022-11-14T08:17:22;54.33;;;35.60;;
1682;SDS011;13252;53.596;10.060;2022-11-14T08:20:08;59.63;;;36.73;;
1682;SDS011;13252;53.596;10.060;2022-11-14T08:23:00;57.43;;;34.70;;
1682;SDS011;13252;53.596;10.060;2022-11-14T08:25:46;63.17;;;37.67;;
1682;SDS011;13252;53.596;10.060;2022-11-14T08:28:34;59.20;;;33.77;;
1682;SDS011;13252;53.596;10.060;2022-11-14T08:31:21;49.93;;;34.37;;
1682;SDS011;13252;53.596;10.060;2022-11-14T08:34:07;51.43;;;33.50;;
1682;SDS011;13252;53.596;10.060;2022-11-14T08:36:54;56.77;;;35.33;;
1682;SDS011;13252;53.596;10.060;2022-11-14T08:39:41;57.03;;;34.30;;
1682;SDS011;13252;53.596;10.060;2022-11-14T08:42:27;52.33;;;33.10;;
1682;SDS011;13252;53.596;10.060;2022-11-14T08:45:15;56.03;;;35.00;;
1682;SDS011;13252;53.596;10.060;2022-11-14T08:48:01;58.03;;;37.60;;
1682;SDS011;13252;53.596;10.060;2022-11-14T08:50:48;54.03;;;33.00;;
1682;SDS011;13252;53.596;10.060;2022-11-14T08:53:34;54.57;;;34.53;;
1682;SDS011;13252;53.596;10.060;2022-11-14T08:56:20;54.70;;;33.40;;
1682;SDS011;13252;53.596;10.060;2022-11-14T08:59:07;65.90;;;33.27;;
1682;SDS011;13252;53.596;10.060;2022-11-14T09:01:54;58.43;;;34.77;;
1682;SDS011;13252;53.596;10.060;2022-11-14T09:04:41;51.93;;;33.33;;
1682;SDS011;13252;53.596;10.060;2022-11-14T09:07:27;47.70;;;32.27;;
1682;SDS011;13252;53.596;10.060;2022-11-14T09:10:14;55.53;;;31.17;;
1682;SDS011;13252;53.596;10.060;2022-11-14T09:13:01;55.53;;;34.43;;
1682;SDS011;13252;53.596;10.060;2022-11-14T09:15:47;60.93;;;33.63;;
1682;SDS011;13252;53.596;10.060;2022-11-14T09:18:35;52.77;;;34.27;;
1682;SDS011;13252;53.596;10.060;2022-11-14T09:21:21;60.13;;;35.57;;
1682;SDS011;13252;53.596;10.060;2022-11-14T09:24:07;57.00;;;34.43;;
1682;SDS011;13252;53.596;10.060;2022-11-14T09:26:54;57.90;;;36.90;;
1682;SDS011;13252;53.596;10.060;2022-11-14T09:29:41;54.73;;;33.30;;
1682;SDS011;13252;53.596;10.060;2022-11-14T09:32:27;56.27;;;32.57;;
1682;SDS011;13252;53.596;10.060;2022-11-14T09:35:16;54.63;;;34.77;;
1682;SDS011;13252;53.596;10.060;2022-11-14T09:38:03;52.00;;;33.80;;
1682;SDS011;13252;53.596;10.060;2022-11-14T09:40:54;61.07;;;35.07;;
1682;SDS011;13252;53.596;10.060;2022-11-14T09:44:00;56.50;;;32.90;;
1682;SDS011;13252;53.596;10.060;2022-11-14T09:47:06;61.17;;;32.50;;
1682;SDS011;13252;53.596;10.060;2022-11-14T09:50:05;56.97;;;34.70;;
1682;SDS011;13252;53.596;10.060;2022-11-14T09:52:57;59.33;;;34.70;;
1682;SDS011;13252;53.596;10.060;2022-11-14T09:55:45;59.23;;;33.90;;
1682;SDS011;13252;53.596;10.060;2022-11-14T09:58:31;51.43;;;33.37;;
1682;SDS011;13252;53.596;10.060;2022-11-14T10:01:27;52.03;;;31.60;;
1682;SDS011;13252;53.596;10.060;2022-11-14T10:04:18;52.80;;;34.20;;
1682;SDS011;13252;53.596;10.060;2022-11-14T10:07:12;56.40;;;35.13;;
1682;SDS011;13252;53.596;10.060;2022-11-14T10:10:08;60.07;;;35.37;;
1682;SDS011;13252;53.596;10.060;2022-11-14T10:13:02;51.60;;;34.93;;
1682;SDS011;13252;53.596;10.060;2022-11-14T10:15:58;59.53;;;32.17;;
1682;SDS011;13252;53.596;10.060;2022-11-14T10:18:57;48.03;;;31.50;;
1682;SDS011;13252;53.596;10.060;2022-11-14T10:21:59;51.87;;;33.23;;
1682;SDS011;13252;53.596;10.060;2022-11-14T10:24:56;47.17;;;31.10;;
1682;SDS011;13252;53.596;10.060;2022-11-14T10:28:00;50.83;;;33.27;;
1682;SDS011;13252;53.596;10.060;2022-11-14T10:30:54;46.03;;;31.77;;
1682;SDS011;13252;53.596;10.060;2022-11-14T10:33:48;50.37;;;31.07;;
1682;SDS011;13252;53.596;10.060;2022-11-14T10:36:41;50.87;;;33.07;;
1682;SDS011;13252;53.596;10.060;2022-11-14T10:39:34;51.30;;;33.60;;
1682;SDS011;13252;53.596;10.060;2022-11-14T10:42:24;43.83;;;32.43;;
1682;SDS011;13252;53.596;10.060;2022-11-14T10:45:18;49.13;;;33.43;;
1682;SDS011;13252;53.596;10.060;2022-11-14T10:48:09;46.70;;;33.17;;
1682;SDS011;13252;53.596;10.060;2022-11-14T10:50:59;48.17;;;32.30;;
1682;SDS011;13252;53.596;10.060;2022-11-14T10:53:51;45.50;;;31.53;;
1682;SDS011;13252;53.596;10.060;2022-11-14T10:56:44;50.10;;;33.77;;
1682;SDS011;13252;53.596;10.060;2022-11-14T10:59:31;46.70;;;31.03;;
1682;SDS011;13252;53.596;10.060;2022-11-14T11:02:19;49.40;;;33.57;;
1682;SDS011;13252;53.596;10.060;2022-11-14T11:05:10;49.30;;;31.90;;
1682;SDS011;13252;53.596;10.060;2022-11-14T11:07:59;49.50;;;32.60;;
1682;SDS011;13252;53.596;10.060;2022-11-14T11:11:11;47.37;;;33.43;;
1682;SDS011;13252;53.596;10.060;2022-11-14T11:14:17;41.83;;;30.23;;
1682;SDS011;13252;53.596;10.060;2022-11-14T11:17:07;48.47;;;31.20;;
1682;SDS011;13252;53.596;10.060;2022-11-14T11:23:16;43.50;;;31.87;;
1682;SDS011;13252;53.596;10.060;2022-11-14T11:26:04;45.60;;;31.10;;
1682;SDS011;13252;53.596;10.060;2022-11-14T11:32:01;43.90;;;31.47;;
1682;SDS011;13252;53.596;10.060;2022-11-14T11:34:47;46.33;;;30.23;;
1682;SDS011;13252;53.596;10.060;2022-11-14T11:37:36;49.73;;;31.37;;
1682;SDS011;13252;53.596;10.060;2022-11-14T11:40:25;45.83;;;30.63;;
1682;SDS011;13252;53.596;10.060;2022-11-14T11:43:14;42.80;;;29.60;;
1682;SDS011;13252;53.596;10.060;2022-11-14T11:46:24;48.90;;;28.90;;
1682;SDS011;13252;53.596;10.060;2022-11-14T11:49:14;41.13;;;29.43;;
1682;SDS011;13252;53.596;10.060;2022-11-14T11:52:03;42.37;;;29.43;;
1682;SDS011;13252;53.596;10.060;2022-11-14T11:54:55;43.43;;;28.90;;
1682;SDS011;13252;53.596;10.060;2022-11-14T11:57:45;38.80;;;28.00;;
1682;SDS011;13252;53.596;10.060;2022-11-14T12:00:33;46.63;;;30.33;;
1682;SDS011;13252;53.596;10.060;2022-11-14T12:03:19;41.07;;;28.27;;
1682;SDS011;13252;53.596;10.060;2022-11-14T12:06:10;43.13;;;30.10;;
1682;SDS011;13252;53.596;10.060;2022-11-14T12:09:05;41.03;;;28.90;;
1682;SDS011;13252;53.596;10.060;2022-11-14T12:11:56;42.37;;;29.30;;
1682;SDS011;13252;53.596;10.060;2022-11-14T12:14:59;42.33;;;27.53;;
1682;SDS011;13252;53.596;10.060;2022-11-14T12:21:11;38.97;;;27.97;;
1682;SDS011;13252;53.596;10.060;2022-11-14T12:24:17;37.40;;;27.53;;
1682;SDS011;13252;53.596;10.060;2022-11-14T12:27:17;38.20;;;27.80;;
1682;SDS011;13252;53.596;10.060;2022-11-14T12:30:10;39.50;;;29.07;;
1682;SDS011;13252;53.596;10.060;2022-11-14T12:32:59;35.63;;;26.30;;
1682;SDS011;13252;53.596;10.060;2022-11-14T12:35:49;37.63;;;26.70;;
1682;SDS011;13252;53.596;10.060;2022-11-14T12:38:42;35.87;;;24.57;;
1682;SDS011;13252;53.596;10.060;2022-11-14T12:41:31;40.60;;;29.07;;
1682;SDS011;13252;53.596;10.060;2022-11-14T12:44:30;45.27;;;27.43;;
1682;SDS011;13252;53.596;10.060;2022-11-14T12:47:19;38.63;;;27.87;;
1682;SDS011;13252;53.596;10.060;2022-11-14T12:50:27;41.70;;;29.07;;
1682;SDS011;13252;53.596;10.060;2022-11-14T12:53:35;44.50;;;30.23;;
1682;SDS011;13252;53.596;10.060;2022-11-14T12:59:49;46.73;;;28.80;;
1682;SDS011;13252;53.596;10.060;2022-11-14T13:05:59;40.23;;;29.00;;
1682;SDS011;13252;53.596;10.060;2022-11-14T13:09:08;41.23;;;27.90;;
1682;SDS011;13252;53.596;10.060;2022-11-14T13:12:25;42.70;;;29.03;;
1682;SDS011;13252;53.596;10.060;2022-11-14T13:15:34;53.73;;;31.20;;
1682;SDS011;13252;53.596;10.060;2022-11-14T13:18:50;42.47;;;30.00;;
1682;SDS011;13252;53.596;10.060;2022-11-14T13:31:45;47.53;;;30.93;;
1682;SDS011;13252;53.596;10.060;2022-11-14T13:34:38;45.30;;;31.80;;
1682;SDS011;13252;53.596;10.060;2022-11-14T13:37:33;42.40;;;29.63;;
1682;SDS011;13252;53.596;10.060;2022-11-14T13:40:31;42.07;;;30.00;;
1682;SDS011;13252;53.596;10.060;2022-11-14T13:43:21;43.00;;;29.57;;
1682;SDS011;13252;53.596;10.060;2022-11-14T13:46:12;44.20;;;30.93;;
1682;SDS011;13252;53.596;10.060;2022-11-14T13:49:11;50.10;;;30.90;;
1682;SDS011;13252;53.596;10.060;2022-11-14T13:52:06;44.30;;;29.00;;
1682;SDS011;13252;53.596;10.060;2022-11-14T13:54:52;43.60;;;28.40;;
1682;SDS011;13252;53.596;10.060;2022-11-14T13:57:40;41.17;;;28.63;;
1682;SDS011;13252;53.596;10.060;2022-11-14T14:00:40;44.20;;;29.83;;
1682;SDS011;13252;53.596;10.060;2022-11-14T14:03:40;43.87;;;30.17;;
1682;SDS011;13252;53.596;10.060;2022-11-14T14:06:39;45.20;;;30.70;;
1682;SDS011;13252;53.596;10.060;2022-11-14T14:09:36;43.23;;;28.80;;
1682;SDS011;13252;53.596;10.060;2022-11-14T14:12:35;36.87;;;26.27;;
1682;SDS011;13252;53.596;10.060;2022-11-14T14:15:30;44.97;;;31.00;;
1682;SDS011;13252;53.596;10.060;2022-11-14T14:18:22;41.80;;;29.27;;
1682;SDS011;13252;53.596;10.060;2022-11-14T14:21:15;47.07;;;28.77;;
1682;SDS011;13252;53.596;10.060;2022-11-14T14:24:12;40.00;;;27.17;;
1682;SDS011;13252;53.596;10.060;2022-11-14T14:27:12;43.13;;;27.20;;
1682;SDS011;13252;53.596;10.060;2022-11-14T14:30:03;38.03;;;26.27;;
1682;SDS011;13252;53.596;10.060;2022-11-14T14:33:04;42.87;;;26.97;;
1682;SDS011;13252;53.596;10.060;2022-11-14T14:35:55;44.37;;;29.13;;
1682;SDS011;13252;53.596;10.060;2022-11-14T14:38:41;40.57;;;29.77;;
1682;SDS011;13252;53.596;10.060;2022-11-14T14:41:30;40.90;;;28.60;;
1682;SDS011;13252;53.596;10.060;2022-11-14T14:44:22;46.30;;;31.63;;
1682;SDS011;13252;53.596;10.060;2022-11-14T14:47:14;46.53;;;30.60;;
1682;SDS011;13252;53.596;10.060;2022-11-14T14:50:01;39.00;;;27.97;;
1682;SDS011;13252;53.596;10.060;2022-11-14T14:52:54;43.87;;;29.00;;
1682;SDS011;13252;53.596;10.060;2022-11-14T14:55:49;47.10;;;31.50;;
1682;SDS011;13252;53.596;10.060;2022-11-14T14:58:38;39.20;;;27.77;;
1682;SDS011;13252;53.596;10.060;2022-11-14T15:01:26;41.10;;;29.27;;
1682;SDS011;13252;53.596;10.060;2022-11-14T15:04:16;42.67;;;29.90;;
1682;SDS011;13252;53.596;10.060;2022-11-14T15:07:03;45.10;;;29.90;;
1682;SDS011;13252;53.596;10.060;2022-11-14T15:09:50;42.33;;;30.73;;
1682;SDS011;13252;53.596;10.060;2022-11-14T15:12:37;42.93;;;30.17;;
1682;SDS011;13252;53.596;10.060;2022-11-14T15:15:26;42.70;;;29.90;;
1682;SDS011;13252;53.596;10.060;2022-11-14T15:18:15;49.57;;;32.73;;
1682;SDS011;13252;53.596;10.060;2022-11-14T15:21:05;45.60;;;30.10;;
1682;SDS011;13252;53.596;10.060;2022-11-14T15:23:58;47.43;;;31.30;;
1682;SDS011;13252;53.596;10.060;2022-11-14T15:26:46;54.07;;;34.23;;
1682;SDS011;13252;53.596;10.060;2022-11-14T15:29:34;44.87;;;30.20;;
1682;SDS011;13252;53.596;10.060;2022-11-14T15:32:22;48.47;;;30.20;;
1682;SDS011;13252;53.596;10.060;2022-11-14T15:35:22;45.10;;;32.07;;
1682;SDS011;13252;53.596;10.060;2022-11-14T15:38:20;45.17;;;29.17;;
1682;SDS011;13252;53.596;10.060;2022-11-14T15:41:27;46.20;;;31.93;;
1682;SDS011;13252;53.596;10.060;2022-11-14T15:44:27;45.23;;;30.77;;
1682;SDS011;13252;53.596;10.060;2022-11-14T15:47:17;52.53;;;33.03;;
1682;SDS011;13252;53.596;10.060;2022-11-14T15:50:20;50.40;;;32.27;;
1682;SDS011;13252;53.596;10.060;2022-11-14T15:53:15;46.93;;;30.67;;
1682;SDS011;13252;53.596;10.060;2022-11-14T15:56:03;49.67;;;31.03;;
1682;SDS011;13252;53.596;10.060;2022-11-14T15:58:49;50.80;;;32.90;;
1682;SDS011;13252;53.596;10.060;2022-11-14T16:01:36;48.10;;;33.03;;
1682;SDS011;13252;53.596;10.060;2022-11-14T16:04:23;51.63;;;33.30;;
1682;SDS011;13252;53.596;10.060;2022-11-14T16:07:15;49.10;;;32.80;;
1682;SDS011;13252;53.596;10.060;2022-11-14T16:10:02;51.80;;;32.67;;
1682;SDS011;13252;53.596;10.060;2022-11-14T16:12:49;51.03;;;34.50;;
1682;SDS011;13252;53.596;10.060;2022-11-14T16:15:37;56.57;;;32.23;;
1682;SDS011;13252;53.596;10.060;2022-11-14T16:18:23;53.67;;;32.73;;
1682;SDS011;13252;53.596;10.060;2022-11-14T16:21:09;51.27;;;32.77;;
1682;SDS011;13252;53.596;10.060;2022-11-14T16:23:58;51.97;;;32.87;;
1682;SDS011;13252;53.596;10.060;2022-11-14T16:26:44;48.90;;;34.50;;
1682;SDS011;13252;53.596;10.060;2022-11-14T16:29:31;56.20;;;35.00;;
1682;SDS011;13252;53.596;10.060;2022-11-14T16:32:17;60.33;;;36.40;;
1682;SDS011;13252;53.596;10.060;2022-11-14T16:35:05;53.03;;;35.83;;
1682;SDS011;13252;53.596;10.060;2022-11-14T16:37:52;52.07;;;33.30;;
1682;SDS011;13252;53.596;10.060;2022-11-14T16:40:41;64.07;;;34.20;;
1682;SDS011;13252;53.596;10.060;2022-11-14T16:43:28;52.53;;;32.07;;
1682;SDS011;13252;53.596;10.060;2022-11-14T16:46:15;56.67;;;34.60;;
1682;SDS011;13252;53.596;10.060;2022-11-14T16:49:01;56.57;;;34.50;;
1682;SDS011;13252;53.596;10.060;2022-11-14T16:51:48;51.37;;;33.60;;
1682;SDS011;13252;53.596;10.060;2022-11-14T16:54:35;55.27;;;35.53;;
1682;SDS011;13252;53.596;10.060;2022-11-14T16:57:23;55.87;;;34.90;;